Ana Sayfa
METAR-TAF:

METAR-TAF

Havaalanları :

Cidde, Suudi Arabistan

Enlem: 21-42N, Boylam: 039-11E, yükseklik: 15 m

Güncel hava durumu gözlemi

Rapor saat 00:00 UTC de 30 dakika önce yapıldı.
Rüzgar batı/kuzeybatıdan 4 kt
Sıcaklık 32°C
Nem 56%
Basınç 1002 hPa
Görüş mesafesi 10 km veya daha fazla
1500 m altında bulut yok ve kümülonimbus yok

METAR: OEJN 180000Z 30004KT CAVOK 32/22 Q1002 NOSIG

Saat: 03:30 (00:30 UTC)

Tahmin

Rapor saat 23:00 UTC de 1 saat ve 30 dakika önce yapıldı.
Ayın 18'si saat 00 UTC'den ayın 19'si saat 06 UTC'ye kadar geçerli Tahmin
Rüzgar kuzeydoğudan 8 kt
Görüş mesafesi 10 km veya daha fazla
1500 m altında bulut yok ve kümülonimbus yok
Dönüşüyor
ayın 18'si saat 07 UTC'den ayın 18'si saat 09 UTC'ye kadar
Rüzgar kuzey/kuzeybatıdan 15 kt
Dönüşüyor
ayın 18'si saat 15 UTC'den ayın 18'si saat 17 UTC'ye kadar
Rüzgar kuzeydan 8 kt

TAF: OEJN 172300Z 1800/1906 05008KT CAVOK BECMG 1807/1809 33015KT BECMG 1815/1817 36008KT

4.000'den fazla havaalanı için hava durumu gözlemleri ve tahminleri (METAR ve TAF raporları).

Kullanılabilir istasyonlar harita üzerinde sarı ve kırmızı noktalarla gösterilir.

İstasyonun adını görmek için fareyi noktanın üzerinde gezdirin.

Sonrasında hava gözlem ve tahminlerini görmek için tıklayın.

Haritayı değiştirmek için: yaklaştırmak için siyah artı işaretli yeşil düğmeye ve uzaklaştırmak için de eksi işaretli düğmeye hızla tıklayın; bitişik haritalar için yeşil okları kullanın.


METAR-TAF: